AirNav   $300 off a Bose A20 aviation headset
 
 925 users online  

M10 Mountainair Municipal Airport
Mountainair, New Mexico, USA

GOING TO MOUNTAINAIR?


FAA INFORMATION EFFECTIVE 28 FEBRUARY 2019

Location

FAA Identifier: M10
Lat/Long: 34-32-00.0000N / 106-13-26.0000W
34-32.000000N / 106-13.433333W
34.5333333 / -106.2238889
(estimated)
Elevation: 6492 ft. / 1979 m (estimated)
Variation: 11E (1985)
From city: 1 mile NE of MOUNTAINAIR, NM
Time zone: UTC -7 (UTC -6 during Daylight Saving Time)
Zip code: 87036

Airport Operations

Airport use: Open to the public
Activation date: 10/1964
Control tower: no
ARTCC: ALBUQUERQUE CENTER
FSS: ALBUQUERQUE FLIGHT SERVICE STATION
NOTAMs facility: ABQ (NOTAM-D service available)
Attendance: UNATNDD
Wind indicator: yes
Segmented circle: no
Lights: ACTVT HELIPORT LIGHTS, WIND SOCK - CTAF (3 CLICKS).
Beacon: ACTVT BEACON - CTAF (3 CLICKS).

Airport Communications

CTAF: 122.9

Nearby radio navigation aids

VOR radial/distance  VOR name  Freq  Var
CNXr277/28.8CORONA VORTAC115.5013E
ONMr055/31.7SOCORRO VORTAC116.8013E
OTOr191/(35.3)OTTO VOR114.0013E

Airport Services

Airframe service: NONE
Powerplant service: NONE
Bottled oxygen: NONE
Bulk oxygen: NONE

Runway Information

Helipad H1

Dimensions: 54 x 54 ft. / 16 x 16 m
Surface: concrete, in excellent condition
Runway edge lights: PERI
Traffic pattern: leftleft

Runway 8/26

Dimensions: 2578 x 50 ft. / 786 x 15 m
Surface: dirt, in fair condition
RUNWAY 8  RUNWAY 26
Gradient: 0.9%0.9%
Traffic pattern: leftleft
Obstructions: 15 ft. road, 300 ft. from runway, 20:1 slope to clearnone

Airport Ownership and Management from official FAA records

Ownership: Publicly-owned
Owner: TOWN OF MOUNTAINAIR
PO BOX 115
MOUNTAINAIR, NM 87036
Phone 505-847-2321
Manager: DENNIS FULFER
PO BOX 115
MOUNTAINAIR, NM 87036
Phone 505-847-2321
EMERGENCY PHONE 505-384-2705.

Airport Operational Statistics

Aircraft based on the field: 2
Ultralights: 2
    
Aircraft operations: avg 50/month *
100% local general aviation
* for 12-month period ending 08 April 2018

Additional Remarks

RWY 08/26 SOFT; UNUSBL WHEN WET; +2-4 FT BERMS ON EDGES.
RWY 08/26 INFREQUENT MAINTENANCE MAY BE HAZARDOUS; RECOMMEND VISUAL INSPECTION PRIOR TO USING.
SCATTERED TREES & BRUSH ALONG RWY SIDES ARE PRIMARY SFC OBSTRUCTIONS.
ARPT ACCESS GATE LOCKED, CALL AHEAD FOR ACCESS.
RWY 08/26 IS UNMARKED & THE THLDS ARE NOT DELINEATED.

Instrument Procedures

There are no published instrument procedures at M10.

Some nearby airports with instrument procedures:

0E0 - Moriarty Municipal Airport (29 nm N)
KBRG - Belen Regional Airport (31 nm W)
KABQ - Albuquerque International Sunport Airport (36 nm NW)
KONM - Socorro Municipal Airport (46 nm SW)
KAEG - Double Eagle II Airport (46 nm NW)
 
Loc | Ops | Rwys | IFR | FBO | Links
Com | Nav | Svcs | Stats | Notes

Chandler Aviation LLC
 
Area around M10 (Mountainair Municipal Airport)
 
Road maps at: MapQuest Bing Google
 
Aerial photo
WARNING: Photo may not be current or correct
Aerial photo of M10 (Mountainair Municipal Airport)
Photo by Bart Barrack
Taken in October 2017
looking north from +/- 2500 AGL.

Do you have a better or more recent aerial photo of Mountainair Municipal Airport that you would like to share? If so, please send us your photo.

 
Sectional chart

 
Airport distance calculator
Flying to Mountainair Municipal Airport? Find the distance to fly.

From to M10

Sunrise and sunset
Times for 26-Mar-2019
 Local
(UTC-6)
 Zulu
(UTC)
Morning civil twilight06:3612:36
Sunrise07:0113:01
Sunset19:2001:20
Evening civil twilight19:4501:45

Current date and time
Zulu (UTC)  27-Mar-2019 00:09:31
Local (UTC-6)  26-Mar-2019 18:09:31
 
METAR
K0E0 
29nm N 
262355Z AUTO 22011KT 10SM CLR 21/M06 A3017 RMK AO2 T02061056 10233 20177
KBRG 
31nm W 
262355Z AUTO 19016G23KT 10SM CLR 23/M05 A3009 RMK AO2 T02341050 10243 20174
KABQ 
37nm NW 
262352Z 17012KT 10SM FEW120 BKN220 OVC250 22/M03 A3010 RMK AO2 SLP142 T02221028 10233 20167 56018
KCQC 
39nm NE 
ASOS 505-472-4551
262353Z AUTO 15015G23KT 10SM FEW100 16/01 A3022 RMK AO2 SLP187 T01610011 10194 20156 56011
KONM 
46nm SW 
262355Z AUTO 19012G17KT 10SM CLR 24/M02 A3008 RMK AO2 6//// T02351025
KAEG 
46nm NW 
262347Z 16014KT 10SM FEW070 BKN150 20/M02 A3013
TAF
KABQ 
37nm NW 
261720Z 2618/2718 15006KT P6SM BKN250 FM262100 17012G22KT P6SM BKN250 FM270300 13012G20KT P6SM VCSH SCT080 FM270800 17007KT P6SM VCSH BKN040 FM271200 VRB04KT P6SM BKN025
NOTAMs
Click for the latest NOTAMs
NOTAMs are issued by the DoD/FAA and will open in a separate window not controlled by AirNav.

 

 
 

Would you like to see your business listed on this page?

 If your business provides an interesting product or service to pilots, flight crews, aircraft, or users of the Mountainair Municipal Airport, you should consider listing it here.  To start the listing process, click on the button below
 
Add a business
 

Other Pages about Mountainair Municipal Airport

Update a link
 
Copyright © AirNav, LLC. All rights reserved. Privacy Policy  Contact